Sonic Adventure (DX): Time Rankings

Records: Times | Rings | Scores | Races | Bosses | Freestyle
Leaders: Times | Rings | Scores | Races | Bosses | Freestyle | Overall
Rank Player Percent Points Date
1 Gamepro011 99.1% 50 12-12-19
2 Sonicspeedruner 97.9% 119 12-12-19
3 Niczur 95.2% 277 12-12-19
4 Dashjump 93.9% 351 12-12-19
5 Jawzun 93.9% 353 12-12-19
6 DarkPolarNight 92.9% 411 12-12-19
7 drminus 90.7% 536 12-12-19
8 F-Man 90.6% 546 12-12-19
9 THC98 90.2% 566 12-12-19
10 ike6252 88.3% 680 12-12-19
11 Avento128bits 87.9% 699 12-12-19
12 francisco 87.5% 727 12-12-19
13 DarkspinesSonic 87.0% 753 12-12-19
14 ethmar 87.0% 756 12-12-19
15 Marth 86.9% 760 12-12-19
16 frankoredstrato 85.6% 837 12-12-19
17 chainchump 84.0% 929 12-12-19
18 TheRealShadnic 83.9% 932 12-12-19
19 Nim 83.5% 958 12-12-19
20 Paragod 82.7% 1004 12-12-19
21 HyperSonic7701 82.5% 1014 12-12-19
22 Calfd 82.2% 1035 12-12-19
23 Coolfansonic 79.5% 1189 12-12-19
24 InferSaime 79.3% 1202 12-12-19
25 Stefan 78.0% 1278 12-12-19
26 xXMegaManXx 77.9% 1283 12-12-19
27 PfoSonic 77.5% 1310 12-12-19
28 bertin 75.7% 1413 12-12-19
29 yoshifan 75.3% 1433 12-12-19
30 Dave Cramer 73.6% 1533 12-12-19
31 RPGnutter 73.5% 1542 12-12-19
32 sonicam 71.8% 1638 12-12-19
33 Cybrax 71.4% 1661 12-12-19
34 Dekuboy 70.4% 1721 12-12-19
35 Ring Rush 68.9% 1808 12-12-19
36 mike89 68.1% 1857 12-12-19
37 NintenDan 67.9% 1866 12-12-19
38 chaos shadow 67.8% 1875 12-12-19
39 a_moustache 66.8% 1933 12-12-19
40 SkyLights 64.5% 2067 12-12-19
41 iden1 63.0% 2152 12-12-19
42 Combo 63.0% 2154 12-12-19
43 SADXTryHard 60.5% 2298 12-12-19
44 P1 Pause 60.0% 2324 12-12-19
45 WeegeeZV 58.9% 2392 12-12-19
46 Groudon199 58.2% 2431 12-12-19
47 AxlThunder 57.8% 2454 12-12-19
48 Game_Complete 57.5% 2474 12-12-19
49 Shadow Jacky 57.4% 2479 12-12-19
50 VMU Player Banned 56.6% 2523 12-12-19
51 Thorn 56.2% 2547 12-12-19
52 SB737 55.1% 2614 12-12-19
53 The Knuckles Chao 54.9% 2623 12-12-19
54 SadisticMystic 54.8% 2631 12-12-19
55 Chao_Fan 54.7% 2637 12-12-19
56 Parax 54.4% 2650 12-12-19
57 Mastakirby 54.2% 2666 12-12-19
58 KinkyCadence 53.8% 2689 12-12-19
59 mauserman 53.7% 2693 12-12-19
60 LittleBigness 53.6% 2698 12-12-19
60 OmegaDJ 53.6% 2698 12-12-19
62 Psyknux 53.5% 2706 12-12-19
63 Auriman1 53.0% 2735 12-12-19
64 magnum12 52.9% 2740 12-12-19
65 Turbos 52.5% 2764 12-12-19
66 GerbilSoft 51.8% 2804 12-12-19
67 GreatStar 51.5% 2820 12-12-19
68 Webber3000 51.1% 2842 12-12-19
69 Hipertails12 50.7% 2869 12-12-19
70 N 50.3% 2890 12-12-19
71 James_Bertolli 48.1% 3021 12-12-19
72 Cream147 47.7% 3041 12-12-19
73 SPVLABS 47.3% 3066 12-12-19
74 welldooder64 46.8% 3093 12-12-19
75 Skylace 46.8% 3096 12-12-19
76 Omega Rafael Santos 46.8% 3097 12-12-19
77 Diamond 46.5% 3111 12-12-19
77 Quartz 46.5% 3111 12-12-19
79 Psymar 46.3% 3123 12-12-19
80 SonicWinDX 45.7% 3157 12-12-19
81 teamblackarms 45.2% 3188 12-12-19
82 Cyan Ryan 44.7% 3216 12-12-19
83 Andrea Ritsu 44.5% 3229 12-12-19
84 buddychaos0415 44.4% 3234 12-12-19
85 SilverSonic 43.9% 3265 12-12-19
86 paulie9990 43.4% 3295 12-12-19
87 SilvertheAlmighty 43.3% 3298 12-12-19
88 itsPersonnal 42.8% 3329 12-12-19
89 metanightmare22 42.4% 3350 12-12-19
90 CoEmpathy 40.7% 3448 12-12-19
91 lordmetalsonic 40.2% 3477 12-12-19
92 Arch 39.9% 3498 12-12-19
93 Termon 39.1% 3546 12-12-19
94 videogamemaster777 39.0% 3549 12-12-19
95 supersonicfan 38.7% 3569 12-12-19
96 Drakodan 38.2% 3596 12-12-19
97 Kanimayo_Jp 37.9% 3611 12-12-19
98 LilZero 37.8% 3621 12-12-19
99 supersonic465 37.4% 3641 12-12-19
100 FuzZerd 37.4% 3643 12-12-19
101 JamminX42 36.9% 3672 12-12-19
102 eggFL 36.8% 3679 12-12-19
103 BigAL49 36.5% 3693 12-12-19
104 Don 36.3% 3706 12-12-19
105 danieldude 36.0% 3721 12-12-19
106 Fr3nZy 35.2% 3770 12-12-19
107 Siavash Tazari 35.1% 3777 12-12-19
108 Zurggriff 35.0% 3784 12-12-19
109 f0rever_zer0 34.2% 3826 12-12-19
110 Cod4Scopes 34.2% 3831 12-12-19
111 Austinf 33.5% 3870 12-12-19
112 LinksDarkArrows 33.2% 3887 12-12-19
113 Therio 33.2% 3889 12-12-19
114 elecmouse101 32.5% 3928 12-12-19
115 Staf 32.2% 3947 12-12-19
116 ModifiedMonkee 31.9% 3963 12-12-19
117 R3FR4G 31.9% 3965 12-12-19
118 MiStEr_ShAoLiN 31.8% 3969 12-12-19
119 Twilisailor 31.4% 3993 12-12-19
120 BrokenArthritis 31.4% 3994 12-12-19
121 videogamer1014 31.2% 4003 12-12-19
122 Xia 30.7% 4031 12-12-19
123 AC-Tygo 30.5% 4044 12-12-19
124 welshmoose05 30.2% 4059 12-12-19
125 OddCook 29.6% 4095 12-12-19
126 The Great Lord Mick 29.3% 4113 12-12-19
127 Mcshuggets 29.1% 4128 12-12-19
128 Aitamen 29.0% 4131 12-12-19
129 Maxinfamily 28.8% 4142 12-12-19
130 joecoolgames 28.5% 4158 12-12-19
131 Matt_TY 28.5% 4159 12-12-19
132 dabestgamer 28.2% 4180 12-12-19
133 Irregular Zero 28.0% 4188 12-12-19
133 SuperBlitzCraig 28.0% 4188 12-12-19
135 SuperSonic101 27.1% 4241 12-12-19
136 Shadowthegreat 26.9% 4255 12-12-19
137 superjupi 26.8% 4262 12-12-19
138 Hunters13 26.7% 4267 12-12-19
139 thewaytodawnnn 26.4% 4284 12-12-19
140 Rolken 26.4% 4285 12-12-19
141 sonamyfan666 25.9% 4311 12-12-19
142 iarebored 25.8% 4316 12-12-19
143 SaviourDC 25.8% 4318 12-12-19
144 koinu93 25.7% 4322 12-12-19
145 SonicKnuckles 25.6% 4332 12-12-19
146 Spinballwizard 25.5% 4333 12-12-19
147 EngiNerd 24.4% 4397 12-12-19
148 SonicAD 24.4% 4398 12-12-19
149 adf 24.4% 4399 12-12-19
150 Megaman EXE565 23.5% 4449 12-12-19
151 The T 23.4% 4455 12-12-19
152 Sonic Singularity 22.8% 4492 12-12-19
153 Pokemonmaster888 22.6% 4502 12-12-19
154 Platformer 22.6% 4505 12-12-19
155 SeaWolf 22.5% 4512 12-12-19
156 timpkmn89 22.2% 4525 12-12-19
157 Swift Hobo 22.2% 4528 12-12-19
158 Sondow 21.4% 4574 12-12-19
159 Rickyman48 21.4% 4575 12-12-19
160 Sm4sh 20.8% 4610 12-12-19
161 FoxBoy 20.8% 4611 12-12-19
162 KitsuneYamaro 20.7% 4613 12-12-19
163 TFEC Headshot 20.4% 4632 12-12-19
164 Jerzia 20.3% 4640 12-12-19
165 Kogen Player Banned 19.6% 4676 12-12-19
166 Badlex727 19.6% 4677 12-12-19
167 Starlight Sable 19.6% 4678 12-12-19
168 IsisDazs 19.0% 4711 12-12-19
169 Powerjohn25 18.8% 4727 12-12-19
170 HyperSonic64 18.7% 4733 12-12-19
171 crazy1993 18.5% 4741 12-12-19
172 andres430 18.3% 4755 12-12-19
173 SonicU260 17.2% 4820 12-12-19
174 Swinkly 17.1% 4827 12-12-19
175 MPit08 16.9% 4838 12-12-19
176 sonicd5 16.8% 4841 12-12-19
177 iSonicKid2K 16.3% 4873 12-12-19
178 dShadow 16.0% 4891 12-12-19
179 Miles9999 15.7% 4907 12-12-19
180 Cutiefox 15.6% 4910 12-12-19
181 Chawkk 15.6% 4912 12-12-19
182 Monkeh 15.4% 4926 12-12-19
183 Crispian 15.3% 4929 12-12-19
184 DaDude 14.9% 4952 12-12-19
185 Drflash55 14.5% 4973 12-12-19
186 Bass 14.2% 4993 12-12-19
187 Yish 14.1% 4997 12-12-19
188 Cruizer 14.1% 5000 12-12-19
189 Destroyer121121 14.0% 5003 12-12-19
190 zapp 13.9% 5009 12-12-19
191 neaolas 13.9% 5012 12-12-19
191 UninspiredUsername 13.9% 5012 12-12-19
193 superiorsonic 13.7% 5023 12-12-19
194 gamefreak1292 13.6% 5031 12-12-19
195 Sora_yx 13.1% 5060 12-12-19
196 Cooljay 13.0% 5062 12-12-19
197 Chaos_Overlord 12.4% 5100 12-12-19
198 Valfore 12.1% 5118 12-12-19
199 Dage4Aquatic 11.8% 5135 12-12-19
200 GarnetPrincess 11.7% 5138 12-12-19
201 ShinigamiMachine 11.6% 5145 12-12-19
202 soniccoloursunleashed 11.5% 5151 12-12-19
203 Sonicsuperstar1 11.1% 5174 12-12-19
204 FocusSight64 10.8% 5194 12-12-19
205 Werey 10.7% 5199 12-12-19
206 booo95 10.5% 5207 12-12-19
207 Mo Player Banned 10.4% 5212 12-12-19
208 SirTobbii 10.4% 5216 12-12-19
209 Jua Rever 10.3% 5223 12-12-19
210 sonicspeed 10.2% 5226 12-12-19
211 Venick409 9.6% 5262 12-12-19
212 nman36 9.4% 5274 12-12-19
212 Sithwarrior26 9.4% 5274 12-12-19
214 ingx24 8.9% 5303 12-12-19
215 CyberShadow 8.9% 5304 12-12-19
216 dekki1234 8.5% 5325 12-12-19
217 Fozer 8.3% 5336 12-12-19
218 Egor305 8.2% 5340 12-12-19
219 Regano1000 8.2% 5345 12-12-19
220 Colomb_30 8.1% 5348 12-12-19
221 1stKirbyever 7.9% 5359 12-12-19
222 nuckrieg 7.6% 5375 12-12-19
223 TimTH 7.6% 5377 12-12-19
224 Brian_pso 7.5% 5381 12-12-19
225 douglas 7.3% 5396 12-12-19
226 TakaRikka 7.2% 5398 12-12-19
227 Th4tN1nj4Turtl3 7.2% 5402 12-12-19
228 Zip 7.0% 5412 12-12-19
229 Mariosonic15 6.7% 5428 12-12-19
229 wheatrich 6.7% 5428 12-12-19
231 MStitomix 6.6% 5438 12-12-19
232 ieatatsonic 6.5% 5442 12-12-19
233 HermitHelmet 6.4% 5445 12-12-19
234 niscool 6.4% 5448 12-12-19
235 Cort_pso 6.2% 5459 12-12-19
236 Got4n 6.1% 5464 12-12-19
237 Triseena 6.0% 5473 12-12-19
238 Jose_15 5.9% 5479 12-12-19
239 Artie 5.7% 5491 12-12-19
240 BlankTH 5.6% 5493 12-12-19
240 SuperSonicfan9595 5.6% 5493 12-12-19
242 HHNNBBHHN 5.4% 5507 12-12-19
243 Ace747 5.4% 5508 12-12-19
244 Richied 5.2% 5516 12-12-19
245 Paixii 5.2% 5519 12-12-19
246 Aiko 5.1% 5524 12-12-19
247 BallzeH 4.8% 5540 12-12-19
247 FSSRandomvids 4.8% 5540 12-12-19
249 slade23 4.8% 5541 12-12-19
250 PsyBorg 4.7% 5544 12-12-19
251 Jamixesa 4.7% 5546 12-12-19
252 Mankster101 4.7% 5547 12-12-19
253 ArcticDragon 4.7% 5548 12-12-19
254 BecauseWarAnvil 4.6% 5554 12-12-19
255 Nickson98 4.5% 5558 12-12-19
256 Crydio 4.4% 5561 12-12-19
257 TheUltraBlur 4.4% 5566 12-12-19
258 MarewBFN 4.2% 5578 12-12-19
259 stanski 4.1% 5581 12-12-19
260 tal39h 4.0% 5588 12-12-19
261 knuckles_sonic8 3.9% 5595 12-12-19
262 Blue Infamy 3.8% 5597 12-12-19
263 p0ker 3.8% 5600 12-12-19
264 ALundstrom10 3.8% 5601 12-12-19
265 ErrortheCucco 3.6% 5608 12-12-19
266 Rikum22 3.6% 5611 12-12-19
267 ArthurVGCP 3.5% 5615 12-12-19
268 sonic1001 3.5% 5619 12-12-19
269 TheChaosEmeraIds 3.4% 5624 12-12-19
270 AJSIV 3.4% 5625 12-12-19
271 syco1098 3.3% 5626 12-12-19
272 Sonic the Hedgehod16 3.3% 5629 12-12-19
273 ASINISTERTACO 3.2% 5636 12-12-19
274 sonicfan9 3.1% 5641 12-12-19
275 themachoman202 2.9% 5653 12-12-19
276 MK 2.8% 5658 12-12-19
277 Fivavoa 2.7% 5662 12-12-19
278 Mr. Jones 2.7% 5664 12-12-19
279 djmat 2.6% 5666 12-12-19
280 arcfx1985 2.6% 5667 12-12-19
281 BlackArmsShadow 2.6% 5668 12-12-19
282 Sonique Hedgehog 2.6% 5670 12-12-19
283 ptorflaxendrosis 2.5% 5672 12-12-19
284 FlandreScarlet9999vr 2.5% 5674 12-12-19
285 Zeldocto 2.5% 5677 12-12-19
286 BeeAwwb 2.4% 5683 12-12-19
287 KaM Mark MaK 2.3% 5685 12-12-19
288 ShadouZaHejjihoggu 2.3% 5688 12-12-19
289 darkstarblaze 2.2% 5694 12-12-19
290 Sonic The Star 2.1% 5696 12-12-19
291 darkersupershadic 2.1% 5697 12-12-19
292 SpiritDragon1995 2.1% 5698 12-12-19
293 Sarger001 2.0% 5704 12-12-19
293 sonic29887 2.0% 5704 12-12-19
295 Grady219 2.0% 5706 12-12-19
296 Jawaah 1.9% 5711 12-12-19
296 shadowblast63 Player Banned 1.9% 5711 12-12-19
298 Antek 1.8% 5715 12-12-19
299 Klaus 1.8% 5717 12-12-19
300 BioShadow 1.7% 5723 12-12-19
301 IcKY 1.5% 5733 12-12-19
302 SkyBon 1.4% 5739 12-12-19
303 Shanekilz 1.4% 5741 12-12-19
304 isaihtb11 1.3% 5744 12-12-19
305 OhNoes! 1.3% 5745 12-12-19
306 zaktu40 1.3% 5747 12-12-19
307 gaara1234 1.2% 5750 12-12-19
307 S-MS32X-S 1.2% 5750 12-12-19
309 MastaToken 1.1% 5757 12-12-19
310 Mister_Slick 1.0% 5761 12-12-19
311 Sonic06Fan 1.0% 5764 12-12-19
312 Rush Hero 0.9% 5766 12-12-19
313 ChaosNexuss 0.9% 5767 12-12-19
314 oTaiIilLsS 0.8% 5771 12-12-19
315 SonicMega167 0.8% 5772 12-12-19
316 gamed00d 0.8% 5775 12-12-19
316 SilverK 0.8% 5775 12-12-19
318 Burningskull123 0.5% 5791 12-12-19
319 Heroes_Hater 0.5% 5793 12-12-19
320 Sonicontherun 0.3% 5802 12-12-19
321 antiwwe 0.2% 5808 12-12-19
322 Iwannabelink 0.2% 5810 12-12-19
323 Genuine Hedgehog 0.1% 5812 12-12-19
324 dragondragon18 0.1% 5816 12-12-19
325 SonicK100 0.1% 5817 12-12-19
326 Tyrouble 0.0% 5822 12-12-19
327 LancexExWx 0.0% 5823 12-12-19
327 neji_hyuuga 0.0% 5823 12-12-19
327 Over 0.0% 5823 12-12-19
327 sdj6707 Player Banned 0.0% 5823 12-12-19
327 Tran Sonic Fan Player Banned 0.0% 5823 12-12-19

This page is using the New Data Table System. [FUTURE]

Game ID: 3 | Category ID: 1
Hits: 9,604 | Hits This Month: 9 | DB Calls: 24 | Mem Usage: 5.89 MB | Time: 0.46s | Printable

The Sonic Center v3.9
Copyright 2003-2011 by The Sonic Center Team.